Time;durP1;ratioP1;P1;durP2;ratioP2;P2;SDS_P1;SDS_P2;PMS_P1;PMS_P2;Temp;Humidity;BMP_temperature;BMP_pressure;BME280_temperature;BME280_humidity;BME280_pressure;Samples;Min_cycle;Max_cycle;Signal;HPM_P1;HPM_P2
2021/09/27 00:00:57;;;;;;;9.30;8.40;;;19.00;99.90;;;;;;5011910;28;20515;-50
2021/09/27 00:03:24;;;;;;;8.93;8.10;;;19.00;99.90;;;;;;5010762;28;20547;-49
2021/09/27 00:05:56;;;;;;;8.97;8.17;;;19.00;99.90;;;;;;5010759;28;20506;-49
2021/09/27 00:08:23;;;;;;;8.60;7.90;;;18.90;99.90;;;;;;5011508;28;20880;-49
2021/09/27 00:10:52;;;;;;;10.37;9.37;;;18.90;99.90;;;;;;5014199;28;20444;-49
2021/09/27 00:13:19;;;;;;;9.63;8.73;;;18.90;99.90;;;;;;5016023;28;20534;-49
2021/09/27 00:15:49;;;;;;;9.90;8.90;;;18.90;99.90;;;;;;5015948;28;20447;-49
2021/09/27 00:18:18;;;;;;;9.13;8.23;;;18.80;99.90;;;;;;5015550;28;20484;-50
2021/09/27 00:20:48;;;;;;;10.03;8.60;;;18.90;99.90;;;;;;5015739;28;20529;-49
2021/09/27 00:23:17;;;;;;;9.97;8.97;;;18.80;99.90;;;;;;5015807;28;20984;-49
2021/09/27 00:25:44;;;;;;;9.37;8.47;;;18.80;99.90;;;;;;5015885;28;20996;-50
2021/09/27 00:28:12;;;;;;;10.50;9.50;;;18.80;99.90;;;;;;5013928;28;20547;-51
2021/09/27 00:30:40;;;;;;;11.07;10.03;;;18.70;99.90;;;;;;5015439;28;20437;-48
2021/09/27 00:33:07;;;;;;;11.17;9.50;;;18.70;99.90;;;;;;5015854;28;20474;-50
2021/09/27 00:35:37;;;;;;;9.10;8.27;;;18.70;99.90;;;;;;5015477;28;20462;-49
2021/09/27 00:38:04;;;;;;;9.90;9.10;;;18.70;99.90;;;;;;5015048;28;20567;-50
2021/09/27 00:40:36;;;;;;;9.60;8.70;;;18.70;99.90;;;;;;5015299;28;20432;-49
2021/09/27 00:43:03;;;;;;;11.13;10.07;;;18.70;99.90;;;;;;5015489;28;20436;-49
2021/09/27 00:45:36;;;;;;;9.80;8.90;;;18.60;99.90;;;;;;5013976;28;20562;-50
2021/09/27 00:48:03;;;;;;;9.20;8.40;;;18.60;99.90;;;;;;5014912;28;20531;-50
2021/09/27 00:50:33;;;;;;;9.43;8.57;;;18.60;99.90;;;;;;5015298;28;20973;-50
2021/09/27 00:53:05;;;;;;;10.50;9.40;;;18.60;99.90;;;;;;5015185;28;20531;-50
2021/09/27 00:55:33;;;;;;;10.40;9.40;;;18.60;99.90;;;;;;5016378;28;20547;-51
2021/09/27 00:58:00;;;;;;;10.37;9.30;;;18.60;99.90;;;;;;5016298;28;20905;-53
2021/09/27 01:00:28;;;;;;;10.67;9.67;;;18.50;99.90;;;;;;5015226;28;20478;-52
2021/09/27 01:02:55;;;;;;;10.30;9.20;;;18.50;99.90;;;;;;5013715;28;20936;-52
2021/09/27 01:05:23;;;;;;;10.27;9.30;;;18.50;99.90;;;;;;5013743;28;20550;-52
2021/09/27 01:07:55;;;;;;;10.43;9.43;;;18.50;99.90;;;;;;5013512;28;21136;-51
2021/09/27 01:10:41;;;;;;;11.13;9.27;;;18.50;99.90;;;;;;5014967;28;20527;-52
2021/09/27 01:13:47;;;;;;;10.87;9.20;;;18.50;99.90;;;;;;5013548;28;20542;-52
2021/09/27 01:16:26;;;;;;;9.70;8.80;;;18.40;99.90;;;;;;4989358;28;20574;-52
2021/09/27 01:19:06;;;;;;;10.20;9.30;;;18.40;99.90;;;;;;5014326;28;20488;-52
2021/09/27 01:21:42;;;;;;;10.60;9.60;;;18.40;99.90;;;;;;5013414;28;20489;-52
2021/09/27 01:25:01;;;;;;;10.63;9.47;;;18.40;99.90;;;;;;5015176;28;20527;-53
2021/09/27 01:27:56;;;;;;;10.17;9.27;;;18.40;99.90;;;;;;5014522;28;20491;-52
2021/09/27 01:30:53;;;;;;;10.77;9.60;;;18.40;99.90;;;;;;5014638;28;20448;-52
2021/09/27 01:33:28;;;;;;;10.47;9.47;;;18.30;99.90;;;;;;5014499;28;20530;-52
2021/09/27 01:36:07;;;;;;;9.53;8.63;;;18.30;99.90;;;;;;5014335;28;20554;-51
2021/09/27 01:38:42;;;;;;;10.97;9.97;;;18.30;99.90;;;;;;5012751;28;21010;-52
2021/09/27 01:41:20;;;;;;;10.20;9.20;;;18.20;99.90;;;;;;5013095;28;20442;-53
2021/09/27 01:43:57;;;;;;;10.10;9.20;;;18.30;99.90;;;;;;5014416;28;20475;-52
2021/09/27 01:46:30;;;;;;;9.67;8.70;;;18.30;99.90;;;;;;5014727;28;20530;-52
2021/09/27 01:49:03;;;;;;;9.80;8.80;;;18.30;99.90;;;;;;5013901;28;20928;-52
2021/09/27 01:51:51;;;;;;;13.00;8.67;;;18.30;99.90;;;;;;5013040;28;20486;-51
2021/09/27 01:54:23;;;;;;;9.50;8.63;;;18.20;99.90;;;;;;5014075;28;20752;-51
2021/09/27 01:57:00;;;;;;;11.90;9.33;;;18.30;99.90;;;;;;5013816;28;20479;-50
2021/09/27 01:59:37;;;;;;;10.53;9.53;;;18.30;99.90;;;;;;5013693;28;20518;-52
2021/09/27 02:02:09;;;;;;;8.87;8.17;;;18.30;99.90;;;;;;5013986;28;20871;-50
2021/09/27 02:04:48;;;;;;;9.23;8.17;;;18.30;99.90;;;;;;5013887;28;20526;-51
2021/09/27 02:07:17;;;;;;;10.17;9.17;;;18.40;99.90;;;;;;5013727;28;20457;-51
2021/09/27 02:09:56;;;;;;;10.60;8.43;;;18.40;99.90;;;;;;5013444;28;20447;-51
2021/09/27 02:12:29;;;;;;;9.70;8.77;;;18.40;99.90;;;;;;5014660;28;20456;-51
2021/09/27 02:15:02;;;;;;;9.23;8.40;;;18.40;99.90;;;;;;5013577;28;20451;-49
2021/09/27 02:17:35;;;;;;;8.63;7.83;;;18.50;99.90;;;;;;5013633;28;20992;-51
2021/09/27 02:20:09;;;;;;;9.63;8.73;;;18.50;99.90;;;;;;5013443;28;20502;-50
2021/09/27 02:22:41;;;;;;;12.13;11.03;;;18.50;99.90;;;;;;5013899;28;20519;-50
2021/09/27 02:25:14;;;;;;;12.77;11.67;;;18.50;99.90;;;;;;5013668;28;20436;-51
2021/09/27 02:27:42;;;;;;;12.70;11.20;;;18.50;99.90;;;;;;5012083;28;20443;-50
2021/09/27 02:30:11;;;;;;;12.77;11.47;;;18.50;99.90;;;;;;5013428;28;20496;-50
2021/09/27 02:32:45;;;;;;;10.90;9.90;;;18.50;99.90;;;;;;5011701;28;21066;-50
2021/09/27 02:35:19;;;;;;;11.13;10.00;;;18.50;99.90;;;;;;5013379;28;20868;-51
2021/09/27 02:37:52;;;;;;;10.50;9.60;;;18.50;99.90;;;;;;5012845;28;20574;-51
2021/09/27 02:40:25;;;;;;;10.53;9.63;;;18.50;99.90;;;;;;5011777;28;20530;-50
2021/09/27 02:42:55;;;;;;;9.73;8.83;;;18.60;99.90;;;;;;5011949;28;20517;-50
2021/09/27 02:45:24;;;;;;;9.70;8.90;;;18.60;99.90;;;;;;5013074;28;20586;-52
2021/09/27 02:47:55;;;;;;;9.30;8.33;;;18.60;99.90;;;;;;5011463;28;20911;-51
2021/09/27 02:50:28;;;;;;;8.57;7.77;;;18.60;99.90;;;;;;5013066;28;20856;-51
2021/09/27 02:52:56;;;;;;;8.93;7.97;;;18.60;99.90;;;;;;5013035;28;20432;-50
2021/09/27 02:55:29;;;;;;;8.90;8.10;;;18.60;99.90;;;;;;5012700;28;20431;-51
2021/09/27 02:58:15;;;;;;;11.40;8.47;;;18.50;99.90;;;;;;5012513;28;20570;-51
2021/09/27 03:00:52;;;;;;;9.47;8.57;;;18.50;99.90;;;;;;5012908;28;20469;-51
2021/09/27 03:03:31;;;;;;;9.23;8.43;;;18.50;99.90;;;;;;5012950;28;20436;-51
2021/09/27 03:06:15;;;;;;;9.30;8.40;;;18.50;99.90;;;;;;5012228;28;20557;-52
2021/09/27 03:08:56;;;;;;;9.93;9.03;;;18.50;99.90;;;;;;5012446;28;20444;-51
2021/09/27 03:11:48;;;;;;;9.40;8.60;;;18.50;99.90;;;;;;5012863;28;20874;-51
2021/09/27 03:14:30;;;;;;;9.10;8.20;;;18.50;99.90;;;;;;5012816;28;20518;-52
2021/09/27 03:17:03;;;;;;;9.20;8.27;;;18.40;99.90;;;;;;5012710;28;20463;-52
2021/09/27 03:19:43;;;;;;;10.47;8.60;;;18.40;99.90;;;;;;5012283;28;20490;-52
2021/09/27 03:22:21;;;;;;;9.00;8.17;;;18.40;99.90;;;;;;5011856;28;20532;-51
2021/09/27 03:25:02;;;;;;;10.83;8.13;;;18.40;99.90;;;;;;5011139;28;20551;-51
2021/09/27 03:27:37;;;;;;;9.30;8.50;;;18.40;99.90;;;;;;5012543;28;20857;-54
2021/09/27 03:30:13;;;;;;;9.83;7.90;;;18.30;99.90;;;;;;5013621;28;20541;-52
2021/09/27 03:32:51;;;;;;;10.43;9.30;;;18.30;99.90;;;;;;5012532;28;20862;-51
2021/09/27 03:35:24;;;;;;;9.27;8.37;;;18.30;99.90;;;;;;5012288;28;20566;-51
2021/09/27 03:38:02;;;;;;;10.13;9.20;;;18.30;99.90;;;;;;5011120;28;20483;-52
2021/09/27 03:40:43;;;;;;;10.17;8.63;;;18.30;99.90;;;;;;5012338;28;20460;-51
2021/09/27 03:43:18;;;;;;;10.33;9.33;;;18.20;99.90;;;;;;5012040;28;20537;-51
2021/09/27 03:45:55;;;;;;;10.70;9.60;;;18.30;99.90;;;;;;5011525;28;20561;-52
2021/09/27 03:48:30;;;;;;;10.60;9.60;;;18.30;99.90;;;;;;5011877;28;20993;-51
2021/09/27 03:51:02;;;;;;;10.70;9.60;;;18.30;99.90;;;;;;5012377;28;20525;-52
2021/09/27 03:53:37;;;;;;;11.27;10.10;;;18.30;99.90;;;;;;5010755;28;20892;-52
2021/09/27 03:56:08;;;;;;;10.67;9.67;;;18.30;99.90;;;;;;5011768;28;20475;-52
2021/09/27 03:58:38;;;;;;;10.13;9.10;;;18.30;99.90;;;;;;5011633;28;20511;-51
2021/09/27 04:01:09;;;;;;;10.10;9.20;;;18.40;99.90;;;;;;5012039;28;20471;-52
2021/09/27 04:03:53;;;;;;;10.40;9.30;;;18.40;99.90;;;;;;5011845;28;20450;-51
2021/09/27 04:06:40;;;;;;;10.57;9.47;;;18.40;99.90;;;;;;5011794;28;20511;-52
2021/09/27 04:09:15;;;;;;;10.60;9.60;;;18.40;99.90;;;;;;5011396;28;20534;-50
2021/09/27 04:11:50;;;;;;;10.20;9.30;;;18.40;99.90;;;;;;5011994;28;20443;-51
2021/09/27 04:14:24;;;;;;;9.93;9.03;;;18.40;99.90;;;;;;5012609;28;20837;-51
2021/09/27 04:17:03;;;;;;;12.07;10.10;;;18.40;99.90;;;;;;5011871;28;20460;-51
2021/09/27 04:19:37;;;;;;;10.70;9.70;;;18.40;99.90;;;;;;5010215;28;20475;-52
2021/09/27 04:22:09;;;;;;;11.27;9.73;;;18.40;99.90;;;;;;5011587;28;20486;-52
2021/09/27 04:24:54;;;;;;;10.00;9.13;;;18.40;99.90;;;;;;5010487;28;20488;-52
2021/09/27 04:27:36;;;;;;;10.13;9.23;;;18.40;99.90;;;;;;5011520;28;20469;-53
2021/09/27 04:30:18;;;;;;;10.50;9.50;;;18.40;99.90;;;;;;5010212;28;21058;-51
2021/09/27 04:33:11;;;;;;;12.20;11.10;;;18.40;99.90;;;;;;5011855;28;20534;-50
2021/09/27 04:35:44;;;;;;;10.57;9.63;;;18.40;99.90;;;;;;5010564;28;20475;-50
2021/09/27 04:38:16;;;;;;;13.00;10.37;;;18.40;99.90;;;;;;5011129;28;20478;-52
2021/09/27 04:41:07;;;;;;;10.80;9.80;;;18.50;99.90;;;;;;5011416;28;20543;-50
2021/09/27 04:43:47;;;;;;;9.80;8.80;;;18.50;99.90;;;;;;5011333;28;20439;-52
2021/09/27 04:46:19;;;;;;;10.93;9.80;;;18.50;99.90;;;;;;5012094;28;20539;-52
2021/09/27 04:49:02;;;;;;;11.60;10.40;;;18.50;99.90;;;;;;5011832;28;20440;-52
2021/09/27 04:51:42;;;;;;;11.43;10.43;;;18.50;99.90;;;;;;5010527;28;20439;-53
2021/09/27 04:54:32;;;;;;;10.67;9.63;;;18.50;99.90;;;;;;5011460;28;20866;-52
2021/09/27 04:57:08;;;;;;;11.20;10.00;;;18.40;99.90;;;;;;5014463;28;20902;-52
2021/09/27 04:59:48;;;;;;;11.73;10.50;;;18.40;99.90;;;;;;5014210;28;20566;-51
2021/09/27 05:02:50;;;;;;;11.20;9.70;;;18.40;99.90;;;;;;5013480;28;20454;-52
2021/09/27 05:05:34;;;;;;;10.97;9.87;;;18.50;99.90;;;;;;5009668;28;20494;-51
2021/09/27 05:08:19;;;;;;;10.80;9.80;;;18.40;99.90;;;;;;5014748;28;20518;-53
2021/09/27 05:11:06;;;;;;;12.83;9.70;;;18.40;99.90;;;;;;5014654;28;20498;-52
2021/09/27 05:13:50;;;;;;;13.03;9.37;;;18.40;99.90;;;;;;5013407;28;20490;-52
2021/09/27 05:16:32;;;;;;;10.10;9.20;;;18.40;99.90;;;;;;5014686;28;20991;-53
2021/09/27 05:19:15;;;;;;;11.20;10.10;;;18.40;99.90;;;;;;5012355;28;20541;-52
2021/09/27 05:22:14;;;;;;;10.60;9.70;;;18.40;99.90;;;;;;5014153;28;20482;-52
2021/09/27 05:25:04;;;;;;;11.13;10.10;;;18.40;99.90;;;;;;5009440;28;20498;-52
2021/09/27 05:27:45;;;;;;;13.27;11.50;;;18.30;99.90;;;;;;5013886;28;20793;-52
2021/09/27 05:30:21;;;;;;;11.70;9.97;;;18.40;99.90;;;;;;5012565;28;20486;-51
2021/09/27 05:32:53;;;;;;;11.13;10.13;;;18.50;99.90;;;;;;5012742;28;20550;-52
2021/09/27 05:35:43;;;;;;;12.83;11.53;;;18.40;99.90;;;;;;5014009;28;20432;-52
2021/09/27 05:38:20;;;;;;;11.23;9.73;;;18.50;99.90;;;;;;5012246;28;20448;-52
2021/09/27 05:41:01;;;;;;;11.87;9.97;;;18.50;99.90;;;;;;5013618;28;20427;-51
2021/09/27 05:43:40;;;;;;;11.20;9.83;;;18.50;99.90;;;;;;5013854;28;20523;-51
2021/09/27 05:46:39;;;;;;;10.80;9.83;;;18.50;99.90;;;;;;5013486;28;20506;-53
2021/09/27 05:49:10;;;;;;;10.47;8.80;;;18.50;99.90;;;;;;5011519;28;20462;-52
2021/09/27 05:51:47;;;;;;;11.43;10.37;;;18.50;99.90;;;;;;5012280;28;20459;-51
2021/09/27 05:54:24;;;;;;;13.27;8.70;;;18.50;99.90;;;;;;5014093;28;20530;-53
2021/09/27 05:56:58;;;;;;;11.13;9.90;;;18.50;99.90;;;;;;5013442;28;20991;-53
2021/09/27 05:59:31;;;;;;;11.20;10.10;;;18.60;99.90;;;;;;5013098;28;20522;-51
2021/09/27 06:02:09;;;;;;;17.17;10.80;;;18.60;99.90;;;;;;5012338;28;20458;-52
2021/09/27 06:04:46;;;;;;;13.50;10.53;;;18.60;99.90;;;;;;5015011;28;20444;-51
2021/09/27 06:07:17;;;;;;;13.37;10.67;;;18.60;99.90;;;;;;5011847;28;20553;-51
2021/09/27 06:09:57;;;;;;;12.00;10.50;;;18.70;99.90;;;;;;5013183;28;20436;-51
2021/09/27 06:12:29;;;;;;;14.60;11.97;;;18.70;99.90;;;;;;5013728;28;20538;-52
2021/09/27 06:15:01;;;;;;;11.03;10.00;;;18.70;99.90;;;;;;5013598;28;20435;-54
2021/09/27 06:17:42;;;;;;;10.53;9.53;;;18.70;99.90;;;;;;5013659;28;20547;-53
2021/09/27 06:20:14;;;;;;;12.27;10.97;;;18.70;99.90;;;;;;5013538;28;20569;-52
2021/09/27 06:22:58;;;;;;;13.63;11.47;;;18.70;99.90;;;;;;5014046;28;20579;-53
2021/09/27 06:25:31;;;;;;;9.80;8.90;;;18.80;99.90;;;;;;5013618;28;20547;-52
2021/09/27 06:28:07;;;;;;;10.97;9.50;;;18.80;99.90;;;;;;5011841;28;20476;-51
2021/09/27 06:30:40;;;;;;;11.60;9.57;;;18.90;99.90;;;;;;5012686;28;20459;-51
2021/09/27 06:33:16;;;;;;;13.33;10.03;;;18.90;99.90;;;;;;5013339;28;20892;-52
2021/09/27 06:35:46;;;;;;;11.03;10.00;;;18.90;99.90;;;;;;5013958;28;20463;-53
2021/09/27 06:38:16;;;;;;;19.33;10.77;;;19.00;99.90;;;;;;5012495;28;20468;-52
2021/09/27 06:40:47;;;;;;;10.77;9.77;;;19.00;99.90;;;;;;5012387;28;20488;-53
2021/09/27 06:43:20;;;;;;;12.53;10.93;;;19.10;99.90;;;;;;5011933;28;20539;-52
2021/09/27 06:45:47;;;;;;;13.27;10.17;;;19.20;99.90;;;;;;5012659;28;20484;-52
2021/09/27 06:48:19;;;;;;;13.73;11.10;;;19.20;99.90;;;;;;5012859;28;20442;-50
2021/09/27 06:50:46;;;;;;;12.77;11.17;;;19.30;99.90;;;;;;5011830;28;20809;-52
2021/09/27 06:53:14;;;;;;;14.77;10.13;;;19.30;99.90;;;;;;5012989;28;20434;-53
2021/09/27 06:55:42;;;;;;;11.37;9.33;;;19.40;99.90;;;;;;4995582;22;1170361;-51
2021/09/27 06:58:09;;;;;;;11.17;10.07;;;19.40;99.90;;;;;;5007459;28;20469;-51
2021/09/27 07:00:35;;;;;;;11.00;9.30;;;19.40;99.90;;;;;;5007637;28;20477;-51
2021/09/27 07:03:03;;;;;;;10.57;9.53;;;19.50;99.90;;;;;;4991331;28;20445;-51
2021/09/27 07:05:31;;;;;;;10.77;9.77;;;19.50;99.90;;;;;;4991086;28;20479;-51
2021/09/27 07:08:01;;;;;;;10.53;8.73;;;19.50;99.90;;;;;;4991994;28;20434;-50
2021/09/27 07:10:28;;;;;;;10.97;10.07;;;19.60;99.90;;;;;;4990856;28;20493;-50
2021/09/27 07:12:55;;;;;;;10.63;9.53;;;19.60;99.90;;;;;;4992719;28;20462;-50
2021/09/27 07:15:22;;;;;;;11.40;10.30;;;19.60;99.90;;;;;;4992238;28;20446;-50
2021/09/27 07:17:49;;;;;;;10.83;9.73;;;19.70;99.90;;;;;;4991692;28;20458;-51
2021/09/27 07:20:21;;;;;;;13.90;10.73;;;19.70;99.90;;;;;;4991866;28;20561;-50
2021/09/27 07:22:50;;;;;;;10.20;8.80;;;19.70;99.90;;;;;;4992187;28;20443;-51
2021/09/27 07:25:17;;;;;;;11.43;10.23;;;19.70;99.90;;;;;;4992144;28;20512;-51
2021/09/27 07:27:44;;;;;;;12.83;11.23;;;19.80;99.90;;;;;;4991242;28;20453;-50
2021/09/27 07:30:13;;;;;;;12.47;11.17;;;19.80;99.90;;;;;;4991943;28;20537;-50
2021/09/27 07:32:41;;;;;;;11.40;10.30;;;19.80;99.90;;;;;;4991811;28;20525;-50
2021/09/27 07:35:09;;;;;;;14.80;11.13;;;19.90;99.90;;;;;;4992426;28;20530;-50
2021/09/27 07:37:38;;;;;;;11.67;9.40;;;20.00;99.90;;;;;;4990088;28;20512;-47
2021/09/27 07:40:09;;;;;;;11.70;10.47;;;20.00;99.90;;;;;;4991800;28;20473;-50
2021/09/27 07:42:37;;;;;;;11.33;10.33;;;20.10;99.90;;;;;;4991835;28;20439;-51
2021/09/27 07:45:10;;;;;;;10.67;9.57;;;20.10;99.90;;;;;;5007377;28;20449;-51
2021/09/27 07:47:36;;;;;;;10.60;9.60;;;20.10;99.90;;;;;;4991594;28;20476;-51
2021/09/27 07:50:04;;;;;;;11.63;10.60;;;20.20;99.90;;;;;;4991900;28;20821;-51
2021/09/27 07:52:31;;;;;;;16.00;10.43;;;20.20;99.90;;;;;;4991754;28;20535;-50
2021/09/27 07:54:57;;;;;;;11.47;10.30;;;20.30;99.90;;;;;;4991836;28;20462;-51
2021/09/27 07:57:25;;;;;;;11.70;10.50;;;20.30;99.90;;;;;;4991635;28;20467;-51
2021/09/27 07:59:53;;;;;;;10.73;9.73;;;20.30;99.90;;;;;;4991248;28;20502;-50
2021/09/27 08:02:20;;;;;;;11.30;10.20;;;20.20;99.90;;;;;;4991918;28;20440;-50
2021/09/27 08:04:47;;;;;;;14.23;10.53;;;20.30;99.90;;;;;;4991938;28;20967;-51
2021/09/27 08:07:15;;;;;;;10.77;9.63;;;20.30;99.90;;;;;;4991852;28;20455;-51
2021/09/27 08:09:42;;;;;;;10.33;9.20;;;20.40;99.90;;;;;;4990051;28;20565;-51
2021/09/27 08:12:08;;;;;;;10.20;9.30;;;20.50;99.90;;;;;;4991855;28;20526;-50
2021/09/27 08:14:38;;;;;;;11.33;10.23;;;20.60;99.90;;;;;;4991402;28;20447;-51
2021/09/27 08:17:05;;;;;;;11.30;10.00;;;20.70;99.90;;;;;;4990057;28;21000;-52
2021/09/27 08:19:32;;;;;;;11.23;10.10;;;20.80;99.90;;;;;;4991401;28;20828;-51
2021/09/27 08:21:59;;;;;;;11.60;10.30;;;20.80;99.90;;;;;;4991754;28;20440;-51
2021/09/27 08:24:26;;;;;;;11.20;10.23;;;20.90;99.90;;;;;;4991637;28;20445;-51
2021/09/27 08:26:52;;;;;;;10.30;8.93;;;20.90;99.90;;;;;;4991207;28;20456;-50
2021/09/27 08:29:19;;;;;;;9.50;8.53;;;20.90;99.90;;;;;;4991164;28;20538;-50
2021/09/27 08:31:48;;;;;;;10.03;9.13;;;21.00;99.90;;;;;;4994522;28;20496;-51
2021/09/27 08:34:16;;;;;;;10.07;9.17;;;21.00;99.90;;;;;;4995300;28;20437;-50
2021/09/27 08:36:43;;;;;;;9.33;8.57;;;21.00;99.90;;;;;;4995274;28;20543;-50
2021/09/27 08:39:11;;;;;;;13.17;10.43;;;21.00;99.90;;;;;;4995252;28;20548;-50
2021/09/27 08:41:51;;;;;;;10.10;9.20;;;21.10;99.90;;;;;;4995370;28;20439;-50
2021/09/27 08:44:32;;;;;;;11.10;10.00;;;21.10;99.90;;;;;;4994982;28;20451;-50
2021/09/27 08:47:06;;;;;;;10.83;9.73;;;21.10;99.90;;;;;;4994862;28;20815;-51
2021/09/27 08:49:41;;;;;;;13.07;10.10;;;21.10;99.90;;;;;;4994661;28;20436;-50
2021/09/27 08:52:10;;;;;;;11.57;10.47;;;21.10;99.90;;;;;;4995487;28;20442;-50
2021/09/27 08:54:37;;;;;;;12.40;11.20;;;21.00;99.90;;;;;;4994553;28;20447;-49
2021/09/27 08:57:10;;;;;;;10.57;9.50;;;21.00;99.90;;;;;;4994860;28;20506;-50
2021/09/27 08:59:46;;;;;;;15.57;10.80;;;21.00;99.90;;;;;;4994527;28;20568;-50
2021/09/27 09:02:26;;;;;;;13.43;10.20;;;21.10;99.90;;;;;;4994781;28;20437;-50
2021/09/27 09:05:06;;;;;;;10.87;9.77;;;21.20;99.90;;;;;;4995150;28;20452;-49
2021/09/27 09:07:34;;;;;;;10.03;9.00;;;21.30;99.90;;;;;;4994456;28;20451;-51
2021/09/27 09:10:06;;;;;;;11.43;9.10;;;21.30;99.90;;;;;;4995026;28;20436;-50
2021/09/27 09:12:36;;;;;;;11.17;10.10;;;21.40;99.90;;;;;;4994529;28;20487;-50
2021/09/27 09:15:12;;;;;;;12.77;10.37;;;21.40;99.90;;;;;;4994859;28;20486;-50
2021/09/27 09:17:47;;;;;;;10.97;9.50;;;21.40;99.90;;;;;;4994431;28;20447;-50
2021/09/27 09:20:17;;;;;;;12.23;10.50;;;21.40;99.90;;;;;;4994520;28;20487;-50
2021/09/27 09:22:46;;;;;;;12.93;10.27;;;21.40;99.90;;;;;;4994397;28;20436;-50
2021/09/27 09:25:18;;;;;;;11.03;10.00;;;21.40;99.90;;;;;;4994482;28;20536;-50
2021/09/27 09:27:45;;;;;;;12.23;11.10;;;21.30;99.90;;;;;;4993859;28;20449;-49
2021/09/27 09:30:12;;;;;;;12.33;10.30;;;21.30;99.90;;;;;;4994326;28;20449;-50
2021/09/27 09:32:41;;;;;;;11.07;9.93;;;21.20;99.90;;;;;;4994417;28;20940;-49
2021/09/27 09:35:18;;;;;;;11.83;10.80;;;21.30;99.90;;;;;;4994396;28;20855;-49
2021/09/27 09:37:52;;;;;;;11.63;10.53;;;21.30;99.90;;;;;;4993950;28;20531;-49
2021/09/27 09:40:22;;;;;;;11.23;10.13;;;21.30;99.90;;;;;;4994259;28;20480;-50
2021/09/27 09:42:59;;;;;;;13.77;9.93;;;21.40;99.90;;;;;;4992953;28;20523;-49
2021/09/27 09:45:28;;;;;;;10.67;9.77;;;21.50;99.90;;;;;;4993545;28;20460;-50
2021/09/27 09:48:17;;;;;;;11.30;10.03;;;21.50;99.90;;;;;;4993958;28;20795;-50
2021/09/27 09:50:45;;;;;;;12.90;10.60;;;21.60;99.90;;;;;;4994019;28;20437;-49
2021/09/27 09:53:24;;;;;;;11.20;10.20;;;21.70;99.90;;;;;;4994278;28;20443;-49
2021/09/27 09:56:01;;;;;;;11.63;10.53;;;21.80;99.90;;;;;;4993581;28;20472;-51
2021/09/27 09:58:38;;;;;;;11.47;10.20;;;21.80;99.90;;;;;;4993551;28;20917;-50
2021/09/27 10:01:08;;;;;;;17.20;10.90;;;21.80;99.90;;;;;;4994045;28;20498;-49
2021/09/27 10:03:39;;;;;;;12.23;10.87;;;21.80;99.90;;;;;;4993793;28;20506;-50
2021/09/27 10:06:08;;;;;;;11.80;10.60;;;21.90;99.90;;;;;;4993702;28;20482;-50
2021/09/27 10:08:37;;;;;;;15.37;11.60;;;21.90;99.90;;;;;;4992628;28;20942;-50
2021/09/27 10:11:07;;;;;;;10.63;9.63;;;21.90;99.90;;;;;;4993843;28;20525;-50
2021/09/27 10:13:41;;;;;;;11.70;10.20;;;21.90;99.90;;;;;;4993718;28;20801;-50
2021/09/27 10:16:14;;;;;;;11.73;10.53;;;21.90;99.90;;;;;;4993801;28;20470;-50
2021/09/27 10:18:46;;;;;;;11.20;10.10;;;21.80;99.90;;;;;;4993068;28;20801;-51
2021/09/27 10:21:33;;;;;;;13.80;11.13;;;21.80;99.90;;;;;;4993696;28;20499;-49
2021/09/27 10:24:15;;;;;;;12.40;11.20;;;21.80;99.90;;;;;;4993340;28;20437;-50
2021/09/27 10:26:47;;;;;;;12.47;10.60;;;21.90;99.90;;;;;;4993003;28;20468;-50
2021/09/27 10:29:16;;;;;;;16.10;11.20;;;21.90;99.90;;;;;;4992632;28;20441;-50
2021/09/27 10:31:54;;;;;;;14.30;12.90;;;21.90;99.90;;;;;;4993001;28;20460;-50
2021/09/27 10:34:24;;;;;;;13.00;11.60;;;22.00;99.90;;;;;;4992997;28;20776;-49
2021/09/27 10:36:56;;;;;;;11.03;10.03;;;22.00;99.90;;;;;;4992996;28;20483;-50
2021/09/27 10:39:24;;;;;;;12.57;11.27;;;22.00;99.90;;;;;;4992685;28;20441;-50
2021/09/27 10:41:55;;;;;;;13.63;11.80;;;22.00;99.90;;;;;;5008161;28;20833;-50
2021/09/27 10:44:26;;;;;;;14.97;11.90;;;22.00;99.90;;;;;;4992864;28;20451;-50
2021/09/27 10:47:03;;;;;;;12.37;11.10;;;22.00;99.90;;;;;;4992526;28;20555;-50
2021/09/27 10:49:36;;;;;;;13.87;12.30;;;22.00;99.90;;;;;;4992385;28;20441;-50
2021/09/27 10:52:19;;;;;;;13.70;11.67;;;22.00;99.90;;;;;;4992706;28;20437;-50
2021/09/27 10:54:57;;;;;;;14.13;12.23;;;22.10;99.90;;;;;;4992576;28;20434;-50
2021/09/27 10:57:25;;;;;;;13.10;11.30;;;22.20;99.90;;;;;;4992684;28;20547;-50
2021/09/27 10:59:59;;;;;;;13.33;10.33;;;22.20;99.90;;;;;;4992258;28;21073;-50
2021/09/27 11:02:30;;;;;;;15.90;12.27;;;22.30;99.90;;;;;;4992623;28;20545;-49
2021/09/27 11:05:13;;;;;;;11.10;10.00;;;22.30;99.90;;;;;;5006954;28;20462;-50
2021/09/27 11:07:44;;;;;;;11.50;10.50;;;22.40;99.90;;;;;;4992518;28;20465;-51
2021/09/27 11:10:20;;;;;;;12.83;11.53;;;22.50;99.90;;;;;;4992795;28;20438;-50
2021/09/27 11:12:50;;;;;;;12.93;11.30;;;22.50;99.90;;;;;;4992091;28;20442;-50
2021/09/27 11:15:24;;;;;;;12.23;11.13;;;22.60;99.90;;;;;;4992472;28;20457;-50
2021/09/27 11:18:04;;;;;;;14.93;12.07;;;22.70;99.90;;;;;;4991978;28;20433;-50
2021/09/27 11:21:02;;;;;;;13.20;11.90;;;22.80;99.90;;;;;;4992341;28;20494;-49
2021/09/27 11:23:32;;;;;;;15.40;11.80;;;22.80;99.90;;;;;;4992315;28;20439;-50
2021/09/27 11:26:29;;;;;;;13.83;12.53;;;22.90;99.90;;;;;;4991923;28;20459;-50
2021/09/27 11:29:04;;;;;;;14.30;12.10;;;23.00;99.90;;;;;;4992107;28;20442;-49
2021/09/27 11:31:38;;;;;;;12.67;11.53;;;23.10;99.90;;;;;;4991981;28;20427;-50
2021/09/27 11:34:42;;;;;;;12.37;11.17;;;23.10;99.90;;;;;;4991932;28;20431;-50
2021/09/27 11:37:19;;;;;;;13.93;10.30;;;23.10;99.90;;;;;;4985090;28;20478;-50
2021/09/27 11:39:49;;;;;;;14.40;10.33;;;23.10;99.90;;;;;;4991785;28;20446;-50
2021/09/27 11:42:47;;;;;;;15.60;11.00;;;23.00;99.90;;;;;;4991732;28;20492;-50
2021/09/27 11:45:38;;;;;;;11.93;9.60;;;22.60;99.90;;;;;;4991399;28;20442;-50
2021/09/27 11:48:10;;;;;;;12.17;10.97;;;22.90;99.90;;;;;;4991401;28;20525;-50
2021/09/27 11:51:07;;;;;;;15.70;10.57;;;22.80;99.90;;;;;;4991100;28;20883;-51
2021/09/27 11:53:53;;;;;;;15.23;10.60;;;22.80;99.90;;;;;;4991408;28;20443;-50
2021/09/27 11:56:26;;;;;;;12.37;11.10;;;22.70;99.90;;;;;;5006371;28;20493;-51
2021/09/27 11:59:02;;;;;;;10.77;9.83;;;22.70;99.90;;;;;;4991559;28;20442;-50
2021/09/27 12:01:39;;;;;;;10.60;9.50;;;22.60;99.90;;;;;;4990788;28;20571;-50
2021/09/27 12:04:18;;;;;;;11.93;10.20;;;22.50;99.90;;;;;;4991525;28;20484;-51
2021/09/27 12:06:50;;;;;;;10.60;9.60;;;22.50;99.90;;;;;;4990988;28;20458;-50
2021/09/27 12:09:27;;;;;;;11.63;10.00;;;22.50;99.90;;;;;;4991418;28;20469;-50
2021/09/27 12:11:56;;;;;;;13.70;10.60;;;22.60;99.90;;;;;;4991418;28;20698;-50
2021/09/27 12:14:27;;;;;;;11.20;8.60;;;22.60;99.90;;;;;;4991409;28;20438;-50
2021/09/27 12:17:00;;;;;;;12.47;10.43;;;22.60;99.90;;;;;;4991481;28;20455;-51
2021/09/27 12:19:30;;;;;;;14.40;11.00;;;22.60;99.90;;;;;;4991383;28;20431;-50
2021/09/27 12:22:03;;;;;;;12.03;9.43;;;22.70;99.90;;;;;;4991328;28;20637;-50
2021/09/27 12:24:35;;;;;;;9.70;8.93;;;22.80;99.90;;;;;;4991780;28;20868;-50
2021/09/27 12:27:08;;;;;;;11.40;9.60;;;22.80;99.90;;;;;;4991096;28;20811;-50
2021/09/27 12:29:40;;;;;;;10.57;9.57;;;22.80;99.90;;;;;;4991087;28;20760;-50
2021/09/27 12:32:09;;;;;;;10.33;9.40;;;22.90;99.90;;;;;;4991460;28;20445;-50
2021/09/27 12:34:39;;;;;;;12.37;11.23;;;22.90;99.90;;;;;;4991019;28;20455;-50
2021/09/27 12:37:06;;;;;;;11.70;10.60;;;22.90;99.90;;;;;;4991429;28;20809;-50
2021/09/27 12:39:35;;;;;;;11.90;10.63;;;23.00;99.90;;;;;;4990912;28;20446;-50
2021/09/27 12:42:07;;;;;;;12.10;9.87;;;23.00;99.90;;;;;;4991346;28;20488;-49
2021/09/27 12:44:36;;;;;;;10.07;9.07;;;23.10;99.90;;;;;;4990155;28;20526;-50
2021/09/27 12:47:06;;;;;;;11.30;9.90;;;23.10;99.90;;;;;;4991001;28;20821;-50
2021/09/27 12:49:39;;;;;;;9.60;8.70;;;23.20;99.90;;;;;;4990601;28;20467;-50
2021/09/27 12:52:09;;;;;;;11.90;9.43;;;23.20;99.90;;;;;;4990908;28;20439;-50
2021/09/27 12:54:43;;;;;;;10.77;9.80;;;23.30;99.90;;;;;;4991295;28;20497;-50
2021/09/27 12:57:28;;;;;;;10.73;9.30;;;23.30;99.90;;;;;;4991180;28;20897;-51
2021/09/27 12:59:56;;;;;;;10.80;8.90;;;23.30;99.90;;;;;;4990626;28;20436;-49
2021/09/27 13:02:25;;;;;;;14.33;9.83;;;23.30;99.90;;;;;;4990759;28;20536;-50
2021/09/27 13:04:54;;;;;;;12.50;9.33;;;23.40;99.90;;;;;;4991136;28;20745;-50
2021/09/27 13:07:23;;;;;;;11.30;10.10;;;23.30;99.90;;;;;;4991189;28;20472;-49
2021/09/27 13:10:02;;;;;;;11.30;10.30;;;23.40;99.90;;;;;;4990130;28;20555;-49